ADDS TAF Board (Experimental) INFO Settings
IDs: Format: Expanded Condensed

KMEM - Memphis Intl, TN, US

Issued at 1120 UTC 05 Sep 2015
Updated at: 1215 UTC 05 Sep 2015
Time1154Z 05/13Z 05/14Z 05/15Z 05/16Z 05/17Z 05/18Z 05/19Z 05/20Z 05/21Z 05/22Z 05/23Z 06/00Z 06/01Z
Type OBS PRVL PRVL PRVL PRVL PRVL PRVL PRVL PRVL PRVL PRVL PRVL PRVL PRVL
VIS 10 >6 >6 >6 >6 >6 >6 >6 >6 >6 >6 >6 >6 >6
CIG -- -- -- -- -- -- -- -- -- -- -- -- -- --
Cover FEW SCT SCT SCT SCT SCT SCT SCT SCT SCT SCT SCT SCT SCT
FltCat VFR VFR VFR VFR VFR VFR VFR VFR VFR VFR VFR VFR VFR VFR
WX -- -- -- -- -- -- -- -- -- -- -- -- -- --
WDir VRB 120 120 100 100 100 100 100 100 100 100 100 150 150
WSpd 0 4 4 6 6 6 6 6 6 6 6 6 3 3
WGst -- -- -- -- -- -- -- -- -- -- -- -- -- --
R09/27
XWnd VRB -2 -2 -1 -1 -1 -1 -1 -1 -1 -1 -1 -3 -3
HWnd VRB 4 4 6 6 6 6 6 6 6 6 6 2 2
R18/36
XWnd VRB 3 3 6 6 6 6 6 6 6 6 6 1 1
HWnd VRB 2 2 1 1 1 1 1 1 1 1 1 3 3

NOTE: TEMPO conditions in [brackets]. Keep in mind TEMPO conditions might be better (lower impact) than prevailing conditions.

Raw TAF
KMEM 051120Z 0512/0612 12004KT P6SM SCT250
  FM051500 10006KT P6SM SCT045
  FM060000 15003KT P6SM SCT250


Raw METAR
KMEM 051154Z 00000KT 10SM FEW011 25/22 A3005 RMK AO2 SLP171 FU FEW011 T02500217 10278 20250 53013
KMEM 051054Z 00000KT 10SM CLR 26/21 A3004 RMK AO2 SLP166 T02560211
KMEM 050954Z 10003KT 10SM CLR 26/22 A3002 RMK AO2 SLP162 T02610217

METAR Board
Radar Display
Forecast Discussion

TAF Board Legend

Potential Impact
Threat None Slight Moderate High
Visibility (sm) ≥5.1 5.1>X≥3 3>X≥1 <1
Ceiling (100 ft) ≥30.1 30.1>X≥10 10>X≥5 <5
Wind Speed (kt) <10 10≤X<20 20≤X<30 ≥30
Wind Gust (kt) <15 15≤X<25 25≤X<35 ≥35
Weather No Wx Reported VCTS,-TS,-FZRA,SN TS,FZRA +TS,+FZRA,+SN